<?xml version="1.0" encoding="UTF-8" standalone="no" ?>
<gpx xmlns="http://www.topografix.com/GPX/1/1" xmlns:xsi="http://www.w3.org/2001/XMLSchema-instance" xsi:schemaLocation="http://www.topografix.com/GPX/1/1 http://www.topografix.com/GPX/1/1/gpx.xsd" version="1.1" creator="VisuGPX - https://www.visugpx.com">
  <metadata>
    <name>03-03-2026 Castelfranc </name>
    <desc><![CDATA[03-03-2026 Castelfranc 


Nous étions 10 baladeurs-ses pour cette sortie de 4,6 km sur les hauteurs de Castelfranc. 
Nous avons commencé  le circuit à l’envers par rapport au tracé,  sous la ronde des milans noirs. 
Tout au long de notre balade, des dolmens et bien sûr le « fauteuil de César » !  Il y en a en tous lieux dans notre région, à croire que cet empereur est passé partout et  s’y est assis,
fatigué peut-être de toutes ses randonnées dans l’Empire romain !
Très beau circuit à faire en ce lieu chargé d’histoire.
]]></desc>
  </metadata>
  <trk>
    <name><![CDATA[2026-03-03 16:39:39]]></name>
    <trkseg>
      <trkpt lat="44.50666" lon="1.21847">
        <ele>256.33</ele>
        <time>2026-03-03T13:30:12Z</time>
      </trkpt>
      <trkpt lat="44.50664" lon="1.21845">
        <ele>261.62</ele>
        <time>2026-03-03T13:30:38Z</time>
      </trkpt>
      <trkpt lat="44.50666" lon="1.21851">
        <ele>261.14</ele>
        <time>2026-03-03T13:31:00Z</time>
      </trkpt>
      <trkpt lat="44.50667" lon="1.21853">
        <ele>257.77</ele>
        <time>2026-03-03T13:31:14Z</time>
      </trkpt>
      <trkpt lat="44.50666" lon="1.21855">
        <ele>257.29</ele>
        <time>2026-03-03T13:31:36Z</time>
      </trkpt>
      <trkpt lat="44.50666" lon="1.21855">
        <ele>255.37</ele>
        <time>2026-03-03T13:31:55Z</time>
      </trkpt>
      <trkpt lat="44.50667" lon="1.21855">
        <ele>254.89</ele>
        <time>2026-03-03T13:32:14Z</time>
      </trkpt>
      <trkpt lat="44.50666" lon="1.21858">
        <ele>253.93</ele>
        <time>2026-03-03T13:32:39Z</time>
      </trkpt>
      <trkpt lat="44.50666" lon="1.21857">
        <ele>255.37</ele>
        <time>2026-03-03T13:33:01Z</time>
      </trkpt>
      <trkpt lat="44.50667" lon="1.21851">
        <ele>253.44</ele>
        <time>2026-03-03T13:33:28Z</time>
      </trkpt>
      <trkpt lat="44.50669" lon="1.21856">
        <ele>252</ele>
        <time>2026-03-03T13:33:53Z</time>
      </trkpt>
      <trkpt lat="44.50672" lon="1.2185">
        <ele>250.56</ele>
        <time>2026-03-03T13:34:08Z</time>
      </trkpt>
      <trkpt lat="44.50671" lon="1.21851">
        <ele>252</ele>
        <time>2026-03-03T13:34:21Z</time>
      </trkpt>
      <trkpt lat="44.50673" lon="1.21856">
        <ele>252.48</ele>
        <time>2026-03-03T13:34:39Z</time>
      </trkpt>
      <trkpt lat="44.50677" lon="1.21855">
        <ele>250.56</ele>
        <time>2026-03-03T13:35:17Z</time>
      </trkpt>
      <trkpt lat="44.50675" lon="1.21855">
        <ele>252.48</ele>
        <time>2026-03-03T13:35:52Z</time>
      </trkpt>
      <trkpt lat="44.50676" lon="1.21851">
        <ele>252</ele>
        <time>2026-03-03T13:36:23Z</time>
      </trkpt>
      <trkpt lat="44.50676" lon="1.21857">
        <ele>255.37</ele>
        <time>2026-03-03T13:36:57Z</time>
      </trkpt>
      <trkpt lat="44.50674" lon="1.21855">
        <ele>253.44</ele>
        <time>2026-03-03T13:37:27Z</time>
      </trkpt>
      <trkpt lat="44.50675" lon="1.21857">
        <ele>250.56</ele>
        <time>2026-03-03T13:38:02Z</time>
      </trkpt>
      <trkpt lat="44.50675" lon="1.21863">
        <ele>250.08</ele>
        <time>2026-03-03T13:38:34Z</time>
      </trkpt>
      <trkpt lat="44.50674" lon="1.21866">
        <ele>252.48</ele>
        <time>2026-03-03T13:39:13Z</time>
      </trkpt>
      <trkpt lat="44.50672" lon="1.21862">
        <ele>250.56</ele>
        <time>2026-03-03T13:39:37Z</time>
      </trkpt>
      <trkpt lat="44.50674" lon="1.21857">
        <ele>250.08</ele>
        <time>2026-03-03T13:39:53Z</time>
      </trkpt>
      <trkpt lat="44.50673" lon="1.21856">
        <ele>249.12</ele>
        <time>2026-03-03T13:40:10Z</time>
      </trkpt>
      <trkpt lat="44.50673" lon="1.21853">
        <ele>248.16</ele>
        <time>2026-03-03T13:40:25Z</time>
      </trkpt>
      <trkpt lat="44.50673" lon="1.2185">
        <ele>246.72</ele>
        <time>2026-03-03T13:40:45Z</time>
      </trkpt>
      <trkpt lat="44.50677" lon="1.2185">
        <ele>244.79</ele>
        <time>2026-03-03T13:41:03Z</time>
      </trkpt>
      <trkpt lat="44.50675" lon="1.21846">
        <ele>246.72</ele>
        <time>2026-03-03T13:41:28Z</time>
      </trkpt>
      <trkpt lat="44.50676" lon="1.21847">
        <ele>249.6</ele>
        <time>2026-03-03T13:41:51Z</time>
      </trkpt>
      <trkpt lat="44.50679" lon="1.21849">
        <ele>250.56</ele>
        <time>2026-03-03T13:42:10Z</time>
      </trkpt>
      <trkpt lat="44.50684" lon="1.21845">
        <ele>248.16</ele>
        <time>2026-03-03T13:42:30Z</time>
      </trkpt>
      <trkpt lat="44.50698" lon="1.21836">
        <ele>245.75</ele>
        <time>2026-03-03T13:42:46Z</time>
      </trkpt>
      <trkpt lat="44.50706" lon="1.21832">
        <ele>245.75</ele>
        <time>2026-03-03T13:42:59Z</time>
      </trkpt>
      <trkpt lat="44.50715" lon="1.21827">
        <ele>246.23</ele>
        <time>2026-03-03T13:43:12Z</time>
      </trkpt>
      <trkpt lat="44.50724" lon="1.21826">
        <ele>246.72</ele>
        <time>2026-03-03T13:43:26Z</time>
      </trkpt>
      <trkpt lat="44.50734" lon="1.21819">
        <ele>248.16</ele>
        <time>2026-03-03T13:43:40Z</time>
      </trkpt>
      <trkpt lat="44.50745" lon="1.21814">
        <ele>251.04</ele>
        <time>2026-03-03T13:43:55Z</time>
      </trkpt>
      <trkpt lat="44.50756" lon="1.21805">
        <ele>251.04</ele>
        <time>2026-03-03T13:44:10Z</time>
      </trkpt>
      <trkpt lat="44.50758" lon="1.21804">
        <ele>251.04</ele>
        <time>2026-03-03T13:44:13Z</time>
      </trkpt>
      <trkpt lat="44.5077" lon="1.21792">
        <ele>253.44</ele>
        <time>2026-03-03T13:44:27Z</time>
      </trkpt>
      <trkpt lat="44.50774" lon="1.21787">
        <ele>251.52</ele>
        <time>2026-03-03T13:44:44Z</time>
      </trkpt>
      <trkpt lat="44.50781" lon="1.21791">
        <ele>249.12</ele>
        <time>2026-03-03T13:45:06Z</time>
      </trkpt>
      <trkpt lat="44.50793" lon="1.21804">
        <ele>246.23</ele>
        <time>2026-03-03T13:45:23Z</time>
      </trkpt>
      <trkpt lat="44.50805" lon="1.21811">
        <ele>246.72</ele>
        <time>2026-03-03T13:45:37Z</time>
      </trkpt>
      <trkpt lat="44.50822" lon="1.21812">
        <ele>249.6</ele>
        <time>2026-03-03T13:45:52Z</time>
      </trkpt>
      <trkpt lat="44.50835" lon="1.21806">
        <ele>252.48</ele>
        <time>2026-03-03T13:46:08Z</time>
      </trkpt>
      <trkpt lat="44.50846" lon="1.21808">
        <ele>253.44</ele>
        <time>2026-03-03T13:46:22Z</time>
      </trkpt>
      <trkpt lat="44.50854" lon="1.21808">
        <ele>253.44</ele>
        <time>2026-03-03T13:46:40Z</time>
      </trkpt>
      <trkpt lat="44.50868" lon="1.2181">
        <ele>254.89</ele>
        <time>2026-03-03T13:46:55Z</time>
      </trkpt>
      <trkpt lat="44.5088" lon="1.21824">
        <ele>255.85</ele>
        <time>2026-03-03T13:47:12Z</time>
      </trkpt>
      <trkpt lat="44.50887" lon="1.2184">
        <ele>254.89</ele>
        <time>2026-03-03T13:47:30Z</time>
      </trkpt>
      <trkpt lat="44.50901" lon="1.21851">
        <ele>254.41</ele>
        <time>2026-03-03T13:47:47Z</time>
      </trkpt>
      <trkpt lat="44.50916" lon="1.21856">
        <ele>256.33</ele>
        <time>2026-03-03T13:48:02Z</time>
      </trkpt>
      <trkpt lat="44.50928" lon="1.21867">
        <ele>252</ele>
        <time>2026-03-03T13:48:20Z</time>
      </trkpt>
      <trkpt lat="44.50939" lon="1.2188">
        <ele>247.2</ele>
        <time>2026-03-03T13:48:39Z</time>
      </trkpt>
      <trkpt lat="44.50951" lon="1.21887">
        <ele>244.79</ele>
        <time>2026-03-03T13:48:57Z</time>
      </trkpt>
      <trkpt lat="44.50966" lon="1.21888">
        <ele>248.64</ele>
        <time>2026-03-03T13:49:12Z</time>
      </trkpt>
      <trkpt lat="44.50976" lon="1.21899">
        <ele>252.48</ele>
        <time>2026-03-03T13:49:27Z</time>
      </trkpt>
      <trkpt lat="44.50984" lon="1.21886">
        <ele>253.44</ele>
        <time>2026-03-03T13:49:42Z</time>
      </trkpt>
      <trkpt lat="44.5099" lon="1.21867">
        <ele>251.04</ele>
        <time>2026-03-03T13:49:58Z</time>
      </trkpt>
      <trkpt lat="44.50997" lon="1.21859">
        <ele>252.48</ele>
        <time>2026-03-03T13:50:10Z</time>
      </trkpt>
      <trkpt lat="44.51005" lon="1.21849">
        <ele>252.96</ele>
        <time>2026-03-03T13:50:25Z</time>
      </trkpt>
      <trkpt lat="44.51016" lon="1.21836">
        <ele>252.48</ele>
        <time>2026-03-03T13:50:39Z</time>
      </trkpt>
      <trkpt lat="44.51037" lon="1.21827">
        <ele>252.96</ele>
        <time>2026-03-03T13:50:56Z</time>
      </trkpt>
      <trkpt lat="44.51052" lon="1.21825">
        <ele>247.68</ele>
        <time>2026-03-03T13:51:14Z</time>
      </trkpt>
      <trkpt lat="44.5107" lon="1.21818">
        <ele>245.27</ele>
        <time>2026-03-03T13:51:33Z</time>
      </trkpt>
      <trkpt lat="44.51078" lon="1.21817">
        <ele>244.79</ele>
        <time>2026-03-03T13:51:57Z</time>
      </trkpt>
      <trkpt lat="44.51076" lon="1.21817">
        <ele>243.83</ele>
        <time>2026-03-03T13:52:11Z</time>
      </trkpt>
      <trkpt lat="44.51083" lon="1.21817">
        <ele>243.35</ele>
        <time>2026-03-03T13:52:25Z</time>
      </trkpt>
      <trkpt lat="44.511" lon="1.21817">
        <ele>242.39</ele>
        <time>2026-03-03T13:52:43Z</time>
      </trkpt>
      <trkpt lat="44.51114" lon="1.21817">
        <ele>245.75</ele>
        <time>2026-03-03T13:53:01Z</time>
      </trkpt>
      <trkpt lat="44.51125" lon="1.21816">
        <ele>244.31</ele>
        <time>2026-03-03T13:53:22Z</time>
      </trkpt>
      <trkpt lat="44.51132" lon="1.21817">
        <ele>243.35</ele>
        <time>2026-03-03T13:53:41Z</time>
      </trkpt>
      <trkpt lat="44.51139" lon="1.21816">
        <ele>244.79</ele>
        <time>2026-03-03T13:54:00Z</time>
      </trkpt>
      <trkpt lat="44.51154" lon="1.21817">
        <ele>251.04</ele>
        <time>2026-03-03T13:54:19Z</time>
      </trkpt>
      <trkpt lat="44.51163" lon="1.2182">
        <ele>253.44</ele>
        <time>2026-03-03T13:54:31Z</time>
      </trkpt>
      <trkpt lat="44.51177" lon="1.21825">
        <ele>254.41</ele>
        <time>2026-03-03T13:54:49Z</time>
      </trkpt>
      <trkpt lat="44.51188" lon="1.21828">
        <ele>254.89</ele>
        <time>2026-03-03T13:55:05Z</time>
      </trkpt>
      <trkpt lat="44.512" lon="1.21831">
        <ele>256.81</ele>
        <time>2026-03-03T13:55:21Z</time>
      </trkpt>
      <trkpt lat="44.51216" lon="1.21834">
        <ele>257.77</ele>
        <time>2026-03-03T13:55:39Z</time>
      </trkpt>
      <trkpt lat="44.51228" lon="1.21836">
        <ele>255.85</ele>
        <time>2026-03-03T13:55:53Z</time>
      </trkpt>
      <trkpt lat="44.51241" lon="1.21837">
        <ele>252</ele>
        <time>2026-03-03T13:56:12Z</time>
      </trkpt>
      <trkpt lat="44.51255" lon="1.21836">
        <ele>259.21</ele>
        <time>2026-03-03T13:56:26Z</time>
      </trkpt>
      <trkpt lat="44.51266" lon="1.21839">
        <ele>257.77</ele>
        <time>2026-03-03T13:56:42Z</time>
      </trkpt>
      <trkpt lat="44.51276" lon="1.21838">
        <ele>259.21</ele>
        <time>2026-03-03T13:56:57Z</time>
      </trkpt>
      <trkpt lat="44.51285" lon="1.2184">
        <ele>259.69</ele>
        <time>2026-03-03T13:57:10Z</time>
      </trkpt>
      <trkpt lat="44.51301" lon="1.21848">
        <ele>263.06</ele>
        <time>2026-03-03T13:57:26Z</time>
      </trkpt>
      <trkpt lat="44.51314" lon="1.21854">
        <ele>260.65</ele>
        <time>2026-03-03T13:57:42Z</time>
      </trkpt>
      <trkpt lat="44.5132" lon="1.2186">
        <ele>260.65</ele>
        <time>2026-03-03T13:57:54Z</time>
      </trkpt>
      <trkpt lat="44.5133" lon="1.21866">
        <ele>259.21</ele>
        <time>2026-03-03T13:58:10Z</time>
      </trkpt>
      <trkpt lat="44.51346" lon="1.21875">
        <ele>257.77</ele>
        <time>2026-03-03T13:58:28Z</time>
      </trkpt>
      <trkpt lat="44.51364" lon="1.2188">
        <ele>255.85</ele>
        <time>2026-03-03T13:58:44Z</time>
      </trkpt>
      <trkpt lat="44.51385" lon="1.2189">
        <ele>257.77</ele>
        <time>2026-03-03T13:59:06Z</time>
      </trkpt>
      <trkpt lat="44.51398" lon="1.21896">
        <ele>253.44</ele>
        <time>2026-03-03T13:59:24Z</time>
      </trkpt>
      <trkpt lat="44.51416" lon="1.21899">
        <ele>248.16</ele>
        <time>2026-03-03T13:59:45Z</time>
      </trkpt>
      <trkpt lat="44.51428" lon="1.21899">
        <ele>247.68</ele>
        <time>2026-03-03T14:00:02Z</time>
      </trkpt>
      <trkpt lat="44.51431" lon="1.21899">
        <ele>249.12</ele>
        <time>2026-03-03T14:00:22Z</time>
      </trkpt>
      <trkpt lat="44.51432" lon="1.21881">
        <ele>252.96</ele>
        <time>2026-03-03T14:00:41Z</time>
      </trkpt>
      <trkpt lat="44.51428" lon="1.21867">
        <ele>255.37</ele>
        <time>2026-03-03T14:00:57Z</time>
      </trkpt>
      <trkpt lat="44.51422" lon="1.21857">
        <ele>258.25</ele>
        <time>2026-03-03T14:01:14Z</time>
      </trkpt>
      <trkpt lat="44.51424" lon="1.21862">
        <ele>257.29</ele>
        <time>2026-03-03T14:01:34Z</time>
      </trkpt>
      <trkpt lat="44.51425" lon="1.21861">
        <ele>258.25</ele>
        <time>2026-03-03T14:01:53Z</time>
      </trkpt>
      <trkpt lat="44.5143" lon="1.21845">
        <ele>260.17</ele>
        <time>2026-03-03T14:02:09Z</time>
      </trkpt>
      <trkpt lat="44.51431" lon="1.21845">
        <ele>256.81</ele>
        <time>2026-03-03T14:02:32Z</time>
      </trkpt>
      <trkpt lat="44.51431" lon="1.2183">
        <ele>256.33</ele>
        <time>2026-03-03T14:02:51Z</time>
      </trkpt>
      <trkpt lat="44.51435" lon="1.21807">
        <ele>257.29</ele>
        <time>2026-03-03T14:03:09Z</time>
      </trkpt>
      <trkpt lat="44.51443" lon="1.21786">
        <ele>257.29</ele>
        <time>2026-03-03T14:03:27Z</time>
      </trkpt>
      <trkpt lat="44.5145" lon="1.21767">
        <ele>256.81</ele>
        <time>2026-03-03T14:03:47Z</time>
      </trkpt>
      <trkpt lat="44.51453" lon="1.21751">
        <ele>253.93</ele>
        <time>2026-03-03T14:04:03Z</time>
      </trkpt>
      <trkpt lat="44.51457" lon="1.21726">
        <ele>251.52</ele>
        <time>2026-03-03T14:04:22Z</time>
      </trkpt>
      <trkpt lat="44.51458" lon="1.21708">
        <ele>247.68</ele>
        <time>2026-03-03T14:04:39Z</time>
      </trkpt>
      <trkpt lat="44.51461" lon="1.2169">
        <ele>247.2</ele>
        <time>2026-03-03T14:04:56Z</time>
      </trkpt>
      <trkpt lat="44.51465" lon="1.21671">
        <ele>247.68</ele>
        <time>2026-03-03T14:05:12Z</time>
      </trkpt>
      <trkpt lat="44.51468" lon="1.21654">
        <ele>246.23</ele>
        <time>2026-03-03T14:05:27Z</time>
      </trkpt>
      <trkpt lat="44.51472" lon="1.21639">
        <ele>245.27</ele>
        <time>2026-03-03T14:05:40Z</time>
      </trkpt>
      <trkpt lat="44.51477" lon="1.21623">
        <ele>242.87</ele>
        <time>2026-03-03T14:05:56Z</time>
      </trkpt>
      <trkpt lat="44.5148" lon="1.21609">
        <ele>239.51</ele>
        <time>2026-03-03T14:06:10Z</time>
      </trkpt>
      <trkpt lat="44.51487" lon="1.21575">
        <ele>237.1</ele>
        <time>2026-03-03T14:06:33Z</time>
      </trkpt>
      <trkpt lat="44.51488" lon="1.21551">
        <ele>233.26</ele>
        <time>2026-03-03T14:06:52Z</time>
      </trkpt>
      <trkpt lat="44.51492" lon="1.21531">
        <ele>230.85</ele>
        <time>2026-03-03T14:07:11Z</time>
      </trkpt>
      <trkpt lat="44.51495" lon="1.21517">
        <ele>227.97</ele>
        <time>2026-03-03T14:07:32Z</time>
      </trkpt>
      <trkpt lat="44.515" lon="1.21514">
        <ele>228.45</ele>
        <time>2026-03-03T14:08:01Z</time>
      </trkpt>
      <trkpt lat="44.51507" lon="1.21511">
        <ele>227.97</ele>
        <time>2026-03-03T14:08:20Z</time>
      </trkpt>
      <trkpt lat="44.5151" lon="1.21507">
        <ele>228.93</ele>
        <time>2026-03-03T14:08:37Z</time>
      </trkpt>
      <trkpt lat="44.51514" lon="1.21511">
        <ele>231.81</ele>
        <time>2026-03-03T14:08:52Z</time>
      </trkpt>
      <trkpt lat="44.51516" lon="1.21516">
        <ele>228.93</ele>
        <time>2026-03-03T14:09:14Z</time>
      </trkpt>
      <trkpt lat="44.51528" lon="1.21518">
        <ele>228.45</ele>
        <time>2026-03-03T14:09:29Z</time>
      </trkpt>
      <trkpt lat="44.51544" lon="1.2152">
        <ele>227.01</ele>
        <time>2026-03-03T14:09:45Z</time>
      </trkpt>
      <trkpt lat="44.51561" lon="1.21522">
        <ele>225.57</ele>
        <time>2026-03-03T14:10:04Z</time>
      </trkpt>
      <trkpt lat="44.51564" lon="1.21522">
        <ele>225.09</ele>
        <time>2026-03-03T14:10:07Z</time>
      </trkpt>
      <trkpt lat="44.51577" lon="1.21525">
        <ele>222.2</ele>
        <time>2026-03-03T14:10:23Z</time>
      </trkpt>
      <trkpt lat="44.51586" lon="1.21523">
        <ele>227.01</ele>
        <time>2026-03-03T14:10:42Z</time>
      </trkpt>
      <trkpt lat="44.51588" lon="1.21525">
        <ele>231.33</ele>
        <time>2026-03-03T14:10:58Z</time>
      </trkpt>
      <trkpt lat="44.51598" lon="1.21524">
        <ele>231.81</ele>
        <time>2026-03-03T14:11:13Z</time>
      </trkpt>
      <trkpt lat="44.51612" lon="1.21522">
        <ele>231.33</ele>
        <time>2026-03-03T14:11:27Z</time>
      </trkpt>
      <trkpt lat="44.51627" lon="1.21519">
        <ele>229.41</ele>
        <time>2026-03-03T14:11:45Z</time>
      </trkpt>
      <trkpt lat="44.5164" lon="1.21516">
        <ele>228.45</ele>
        <time>2026-03-03T14:11:59Z</time>
      </trkpt>
      <trkpt lat="44.51655" lon="1.21517">
        <ele>227.97</ele>
        <time>2026-03-03T14:12:13Z</time>
      </trkpt>
      <trkpt lat="44.51666" lon="1.2152">
        <ele>225.09</ele>
        <time>2026-03-03T14:12:29Z</time>
      </trkpt>
      <trkpt lat="44.51682" lon="1.21524">
        <ele>219.32</ele>
        <time>2026-03-03T14:12:46Z</time>
      </trkpt>
      <trkpt lat="44.51696" lon="1.21527">
        <ele>220.28</ele>
        <time>2026-03-03T14:13:03Z</time>
      </trkpt>
      <trkpt lat="44.51706" lon="1.21532">
        <ele>227.49</ele>
        <time>2026-03-03T14:13:18Z</time>
      </trkpt>
      <trkpt lat="44.5172" lon="1.21534">
        <ele>224.12</ele>
        <time>2026-03-03T14:13:38Z</time>
      </trkpt>
      <trkpt lat="44.51735" lon="1.21537">
        <ele>220.28</ele>
        <time>2026-03-03T14:13:55Z</time>
      </trkpt>
      <trkpt lat="44.51754" lon="1.21545">
        <ele>220.28</ele>
        <time>2026-03-03T14:14:10Z</time>
      </trkpt>
      <trkpt lat="44.51766" lon="1.21553">
        <ele>225.57</ele>
        <time>2026-03-03T14:14:23Z</time>
      </trkpt>
      <trkpt lat="44.51773" lon="1.21562">
        <ele>227.49</ele>
        <time>2026-03-03T14:14:40Z</time>
      </trkpt>
      <trkpt lat="44.51778" lon="1.21568">
        <ele>229.41</ele>
        <time>2026-03-03T14:14:55Z</time>
      </trkpt>
      <trkpt lat="44.51785" lon="1.21579">
        <ele>226.05</ele>
        <time>2026-03-03T14:15:15Z</time>
      </trkpt>
      <trkpt lat="44.51795" lon="1.21599">
        <ele>226.05</ele>
        <time>2026-03-03T14:15:34Z</time>
      </trkpt>
      <trkpt lat="44.518" lon="1.21613">
        <ele>229.41</ele>
        <time>2026-03-03T14:15:49Z</time>
      </trkpt>
      <trkpt lat="44.51805" lon="1.21629">
        <ele>232.78</ele>
        <time>2026-03-03T14:16:03Z</time>
      </trkpt>
      <trkpt lat="44.51809" lon="1.21643">
        <ele>231.33</ele>
        <time>2026-03-03T14:16:18Z</time>
      </trkpt>
      <trkpt lat="44.51815" lon="1.21662">
        <ele>229.41</ele>
        <time>2026-03-03T14:16:37Z</time>
      </trkpt>
      <trkpt lat="44.51822" lon="1.21678">
        <ele>228.45</ele>
        <time>2026-03-03T14:16:51Z</time>
      </trkpt>
      <trkpt lat="44.51829" lon="1.21696">
        <ele>232.3</ele>
        <time>2026-03-03T14:17:06Z</time>
      </trkpt>
      <trkpt lat="44.51837" lon="1.2171">
        <ele>227.97</ele>
        <time>2026-03-03T14:17:23Z</time>
      </trkpt>
      <trkpt lat="44.51845" lon="1.2172">
        <ele>228.45</ele>
        <time>2026-03-03T14:17:37Z</time>
      </trkpt>
      <trkpt lat="44.51856" lon="1.21738">
        <ele>231.33</ele>
        <time>2026-03-03T14:17:53Z</time>
      </trkpt>
      <trkpt lat="44.51865" lon="1.21752">
        <ele>233.74</ele>
        <time>2026-03-03T14:18:09Z</time>
      </trkpt>
      <trkpt lat="44.51873" lon="1.21764">
        <ele>235.66</ele>
        <time>2026-03-03T14:18:25Z</time>
      </trkpt>
      <trkpt lat="44.51879" lon="1.21776">
        <ele>236.14</ele>
        <time>2026-03-03T14:18:40Z</time>
      </trkpt>
      <trkpt lat="44.51884" lon="1.21788">
        <ele>232.78</ele>
        <time>2026-03-03T14:18:56Z</time>
      </trkpt>
      <trkpt lat="44.51892" lon="1.21802">
        <ele>243.83</ele>
        <time>2026-03-03T14:19:11Z</time>
      </trkpt>
      <trkpt lat="44.51897" lon="1.21818">
        <ele>246.23</ele>
        <time>2026-03-03T14:19:27Z</time>
      </trkpt>
      <trkpt lat="44.51903" lon="1.21829">
        <ele>246.23</ele>
        <time>2026-03-03T14:19:43Z</time>
      </trkpt>
      <trkpt lat="44.5191" lon="1.2184">
        <ele>243.35</ele>
        <time>2026-03-03T14:19:59Z</time>
      </trkpt>
      <trkpt lat="44.51917" lon="1.21853">
        <ele>240.47</ele>
        <time>2026-03-03T14:20:15Z</time>
      </trkpt>
      <trkpt lat="44.51925" lon="1.21868">
        <ele>243.83</ele>
        <time>2026-03-03T14:20:32Z</time>
      </trkpt>
      <trkpt lat="44.51933" lon="1.21881">
        <ele>243.35</ele>
        <time>2026-03-03T14:20:51Z</time>
      </trkpt>
      <trkpt lat="44.51938" lon="1.21889">
        <ele>245.27</ele>
        <time>2026-03-03T14:21:05Z</time>
      </trkpt>
      <trkpt lat="44.51935" lon="1.21884">
        <ele>251.04</ele>
        <time>2026-03-03T14:21:32Z</time>
      </trkpt>
      <trkpt lat="44.51936" lon="1.21885">
        <ele>260.17</ele>
        <time>2026-03-03T14:21:57Z</time>
      </trkpt>
      <trkpt lat="44.51933" lon="1.21886">
        <ele>265.46</ele>
        <time>2026-03-03T14:22:17Z</time>
      </trkpt>
      <trkpt lat="44.51935" lon="1.21881">
        <ele>272.67</ele>
        <time>2026-03-03T14:22:48Z</time>
      </trkpt>
      <trkpt lat="44.51937" lon="1.21885">
        <ele>271.71</ele>
        <time>2026-03-03T14:23:14Z</time>
      </trkpt>
      <trkpt lat="44.51937" lon="1.21887">
        <ele>270.27</ele>
        <time>2026-03-03T14:23:47Z</time>
      </trkpt>
      <trkpt lat="44.51938" lon="1.21889">
        <ele>266.9</ele>
        <time>2026-03-03T14:24:18Z</time>
      </trkpt>
      <trkpt lat="44.51934" lon="1.21893">
        <ele>267.38</ele>
        <time>2026-03-03T14:24:41Z</time>
      </trkpt>
      <trkpt lat="44.51929" lon="1.21898">
        <ele>269.31</ele>
        <time>2026-03-03T14:25:02Z</time>
      </trkpt>
      <trkpt lat="44.51916" lon="1.21906">
        <ele>268.35</ele>
        <time>2026-03-03T14:25:20Z</time>
      </trkpt>
      <trkpt lat="44.51904" lon="1.21915">
        <ele>267.86</ele>
        <time>2026-03-03T14:25:36Z</time>
      </trkpt>
      <trkpt lat="44.51894" lon="1.2192">
        <ele>266.42</ele>
        <time>2026-03-03T14:25:51Z</time>
      </trkpt>
      <trkpt lat="44.51882" lon="1.21921">
        <ele>267.86</ele>
        <time>2026-03-03T14:26:05Z</time>
      </trkpt>
      <trkpt lat="44.51873" lon="1.21923">
        <ele>263.54</ele>
        <time>2026-03-03T14:26:21Z</time>
      </trkpt>
      <trkpt lat="44.51867" lon="1.21937">
        <ele>262.1</ele>
        <time>2026-03-03T14:26:35Z</time>
      </trkpt>
      <trkpt lat="44.51861" lon="1.21952">
        <ele>264.02</ele>
        <time>2026-03-03T14:26:48Z</time>
      </trkpt>
      <trkpt lat="44.5185" lon="1.21968">
        <ele>267.86</ele>
        <time>2026-03-03T14:27:05Z</time>
      </trkpt>
      <trkpt lat="44.51852" lon="1.21968">
        <ele>272.19</ele>
        <time>2026-03-03T14:27:21Z</time>
      </trkpt>
      <trkpt lat="44.51855" lon="1.21956">
        <ele>274.11</ele>
        <time>2026-03-03T14:27:38Z</time>
      </trkpt>
      <trkpt lat="44.51846" lon="1.21952">
        <ele>274.59</ele>
        <time>2026-03-03T14:27:54Z</time>
      </trkpt>
      <trkpt lat="44.5184" lon="1.2196">
        <ele>273.15</ele>
        <time>2026-03-03T14:28:07Z</time>
      </trkpt>
      <trkpt lat="44.51831" lon="1.21964">
        <ele>275.07</ele>
        <time>2026-03-03T14:28:22Z</time>
      </trkpt>
      <trkpt lat="44.51818" lon="1.21958">
        <ele>274.11</ele>
        <time>2026-03-03T14:28:40Z</time>
      </trkpt>
      <trkpt lat="44.5181" lon="1.21949">
        <ele>273.15</ele>
        <time>2026-03-03T14:28:56Z</time>
      </trkpt>
      <trkpt lat="44.5181" lon="1.21948">
        <ele>273.15</ele>
        <time>2026-03-03T14:28:57Z</time>
      </trkpt>
      <trkpt lat="44.51812" lon="1.21935">
        <ele>273.63</ele>
        <time>2026-03-03T14:29:12Z</time>
      </trkpt>
      <trkpt lat="44.5181" lon="1.21936">
        <ele>271.23</ele>
        <time>2026-03-03T14:29:29Z</time>
      </trkpt>
      <trkpt lat="44.51802" lon="1.2194">
        <ele>267.86</ele>
        <time>2026-03-03T14:29:48Z</time>
      </trkpt>
      <trkpt lat="44.51788" lon="1.21944">
        <ele>264.5</ele>
        <time>2026-03-03T14:30:06Z</time>
      </trkpt>
      <trkpt lat="44.51774" lon="1.21952">
        <ele>263.54</ele>
        <time>2026-03-03T14:30:23Z</time>
      </trkpt>
      <trkpt lat="44.51764" lon="1.21959">
        <ele>261.62</ele>
        <time>2026-03-03T14:30:37Z</time>
      </trkpt>
      <trkpt lat="44.51755" lon="1.21966">
        <ele>261.14</ele>
        <time>2026-03-03T14:30:50Z</time>
      </trkpt>
      <trkpt lat="44.51749" lon="1.21969">
        <ele>262.1</ele>
        <time>2026-03-03T14:31:05Z</time>
      </trkpt>
      <trkpt lat="44.51739" lon="1.21975">
        <ele>261.62</ele>
        <time>2026-03-03T14:31:25Z</time>
      </trkpt>
      <trkpt lat="44.51725" lon="1.21985">
        <ele>259.69</ele>
        <time>2026-03-03T14:31:39Z</time>
      </trkpt>
      <trkpt lat="44.51712" lon="1.2199">
        <ele>257.77</ele>
        <time>2026-03-03T14:31:55Z</time>
      </trkpt>
      <trkpt lat="44.517" lon="1.21989">
        <ele>254.89</ele>
        <time>2026-03-03T14:32:09Z</time>
      </trkpt>
      <trkpt lat="44.51686" lon="1.21987">
        <ele>252.96</ele>
        <time>2026-03-03T14:32:24Z</time>
      </trkpt>
      <trkpt lat="44.51674" lon="1.21981">
        <ele>251.52</ele>
        <time>2026-03-03T14:32:40Z</time>
      </trkpt>
      <trkpt lat="44.51665" lon="1.21974">
        <ele>249.6</ele>
        <time>2026-03-03T14:32:55Z</time>
      </trkpt>
      <trkpt lat="44.51656" lon="1.21969">
        <ele>246.72</ele>
        <time>2026-03-03T14:33:14Z</time>
      </trkpt>
      <trkpt lat="44.51651" lon="1.21958">
        <ele>246.72</ele>
        <time>2026-03-03T14:33:31Z</time>
      </trkpt>
      <trkpt lat="44.51653" lon="1.21954">
        <ele>248.64</ele>
        <time>2026-03-03T14:33:56Z</time>
      </trkpt>
      <trkpt lat="44.5165" lon="1.21958">
        <ele>250.56</ele>
        <time>2026-03-03T14:34:22Z</time>
      </trkpt>
      <trkpt lat="44.51651" lon="1.21961">
        <ele>250.56</ele>
        <time>2026-03-03T14:34:51Z</time>
      </trkpt>
      <trkpt lat="44.51649" lon="1.21965">
        <ele>248.64</ele>
        <time>2026-03-03T14:35:14Z</time>
      </trkpt>
      <trkpt lat="44.51648" lon="1.21964">
        <ele>252.96</ele>
        <time>2026-03-03T14:35:48Z</time>
      </trkpt>
      <trkpt lat="44.51649" lon="1.21962">
        <ele>253.93</ele>
        <time>2026-03-03T14:36:30Z</time>
      </trkpt>
      <trkpt lat="44.51651" lon="1.21962">
        <ele>256.33</ele>
        <time>2026-03-03T14:37:08Z</time>
      </trkpt>
      <trkpt lat="44.51649" lon="1.21964">
        <ele>257.77</ele>
        <time>2026-03-03T14:37:41Z</time>
      </trkpt>
      <trkpt lat="44.51647" lon="1.21968">
        <ele>256.33</ele>
        <time>2026-03-03T14:38:14Z</time>
      </trkpt>
      <trkpt lat="44.51642" lon="1.21966">
        <ele>255.37</ele>
        <time>2026-03-03T14:38:36Z</time>
      </trkpt>
      <trkpt lat="44.51627" lon="1.21953">
        <ele>251.52</ele>
        <time>2026-03-03T14:38:54Z</time>
      </trkpt>
      <trkpt lat="44.51612" lon="1.21946">
        <ele>247.2</ele>
        <time>2026-03-03T14:39:15Z</time>
      </trkpt>
      <trkpt lat="44.51597" lon="1.21941">
        <ele>244.79</ele>
        <time>2026-03-03T14:39:34Z</time>
      </trkpt>
      <trkpt lat="44.51581" lon="1.21935">
        <ele>245.27</ele>
        <time>2026-03-03T14:39:52Z</time>
      </trkpt>
      <trkpt lat="44.51565" lon="1.21925">
        <ele>253.44</ele>
        <time>2026-03-03T14:40:07Z</time>
      </trkpt>
      <trkpt lat="44.51554" lon="1.2192">
        <ele>253.44</ele>
        <time>2026-03-03T14:40:24Z</time>
      </trkpt>
      <trkpt lat="44.51539" lon="1.21912">
        <ele>253.93</ele>
        <time>2026-03-03T14:40:40Z</time>
      </trkpt>
      <trkpt lat="44.51526" lon="1.21907">
        <ele>251.52</ele>
        <time>2026-03-03T14:40:58Z</time>
      </trkpt>
      <trkpt lat="44.5151" lon="1.219">
        <ele>253.44</ele>
        <time>2026-03-03T14:41:15Z</time>
      </trkpt>
      <trkpt lat="44.51498" lon="1.21895">
        <ele>253.44</ele>
        <time>2026-03-03T14:41:33Z</time>
      </trkpt>
      <trkpt lat="44.51482" lon="1.21895">
        <ele>254.41</ele>
        <time>2026-03-03T14:41:52Z</time>
      </trkpt>
      <trkpt lat="44.51467" lon="1.21897">
        <ele>255.85</ele>
        <time>2026-03-03T14:42:09Z</time>
      </trkpt>
      <trkpt lat="44.5145" lon="1.21899">
        <ele>254.41</ele>
        <time>2026-03-03T14:42:28Z</time>
      </trkpt>
      <trkpt lat="44.51438" lon="1.21901">
        <ele>253.93</ele>
        <time>2026-03-03T14:42:43Z</time>
      </trkpt>
      <trkpt lat="44.51437" lon="1.21906">
        <ele>254.41</ele>
        <time>2026-03-03T14:43:05Z</time>
      </trkpt>
      <trkpt lat="44.51439" lon="1.21904">
        <ele>257.29</ele>
        <time>2026-03-03T14:43:33Z</time>
      </trkpt>
      <trkpt lat="44.51443" lon="1.21905">
        <ele>259.69</ele>
        <time>2026-03-03T14:43:58Z</time>
      </trkpt>
      <trkpt lat="44.51441" lon="1.21905">
        <ele>261.62</ele>
        <time>2026-03-03T14:44:23Z</time>
      </trkpt>
      <trkpt lat="44.51437" lon="1.21905">
        <ele>262.1</ele>
        <time>2026-03-03T14:44:56Z</time>
      </trkpt>
      <trkpt lat="44.51438" lon="1.21904">
        <ele>263.06</ele>
        <time>2026-03-03T14:45:23Z</time>
      </trkpt>
      <trkpt lat="44.51437" lon="1.21905">
        <ele>264.02</ele>
        <time>2026-03-03T14:45:56Z</time>
      </trkpt>
      <trkpt lat="44.51437" lon="1.21904">
        <ele>265.94</ele>
        <time>2026-03-03T14:46:22Z</time>
      </trkpt>
      <trkpt lat="44.51436" lon="1.21906">
        <ele>268.83</ele>
        <time>2026-03-03T14:46:53Z</time>
      </trkpt>
      <trkpt lat="44.51435" lon="1.21904">
        <ele>270.75</ele>
        <time>2026-03-03T14:47:29Z</time>
      </trkpt>
      <trkpt lat="44.51436" lon="1.21903">
        <ele>269.31</ele>
        <time>2026-03-03T14:47:48Z</time>
      </trkpt>
      <trkpt lat="44.51435" lon="1.21904">
        <ele>271.23</ele>
        <time>2026-03-03T14:48:15Z</time>
      </trkpt>
      <trkpt lat="44.51437" lon="1.21905">
        <ele>270.27</ele>
        <time>2026-03-03T14:48:30Z</time>
      </trkpt>
      <trkpt lat="44.51439" lon="1.21902">
        <ele>269.79</ele>
        <time>2026-03-03T14:48:54Z</time>
      </trkpt>
      <trkpt lat="44.5144" lon="1.21905">
        <ele>267.38</ele>
        <time>2026-03-03T14:49:26Z</time>
      </trkpt>
      <trkpt lat="44.51436" lon="1.21905">
        <ele>268.35</ele>
        <time>2026-03-03T14:49:53Z</time>
      </trkpt>
      <trkpt lat="44.51434" lon="1.21903">
        <ele>268.83</ele>
        <time>2026-03-03T14:50:09Z</time>
      </trkpt>
      <trkpt lat="44.51435" lon="1.21896">
        <ele>266.9</ele>
        <time>2026-03-03T14:50:28Z</time>
      </trkpt>
      <trkpt lat="44.51433" lon="1.21878">
        <ele>266.42</ele>
        <time>2026-03-03T14:50:45Z</time>
      </trkpt>
      <trkpt lat="44.51435" lon="1.21863">
        <ele>264.02</ele>
        <time>2026-03-03T14:51:01Z</time>
      </trkpt>
      <trkpt lat="44.51433" lon="1.21851">
        <ele>259.69</ele>
        <time>2026-03-03T14:51:16Z</time>
      </trkpt>
      <trkpt lat="44.51431" lon="1.21839">
        <ele>256.81</ele>
        <time>2026-03-03T14:51:30Z</time>
      </trkpt>
      <trkpt lat="44.51437" lon="1.21817">
        <ele>255.85</ele>
        <time>2026-03-03T14:51:48Z</time>
      </trkpt>
      <trkpt lat="44.51443" lon="1.21799">
        <ele>255.37</ele>
        <time>2026-03-03T14:52:04Z</time>
      </trkpt>
      <trkpt lat="44.51448" lon="1.2178">
        <ele>251.52</ele>
        <time>2026-03-03T14:52:21Z</time>
      </trkpt>
      <trkpt lat="44.51451" lon="1.21758">
        <ele>254.41</ele>
        <time>2026-03-03T14:52:38Z</time>
      </trkpt>
      <trkpt lat="44.51454" lon="1.21737">
        <ele>256.81</ele>
        <time>2026-03-03T14:52:53Z</time>
      </trkpt>
      <trkpt lat="44.51457" lon="1.21722">
        <ele>255.37</ele>
        <time>2026-03-03T14:53:09Z</time>
      </trkpt>
      <trkpt lat="44.51461" lon="1.21697">
        <ele>252.48</ele>
        <time>2026-03-03T14:53:30Z</time>
      </trkpt>
      <trkpt lat="44.51464" lon="1.21685">
        <ele>249.6</ele>
        <time>2026-03-03T14:53:48Z</time>
      </trkpt>
      <trkpt lat="44.51468" lon="1.21667">
        <ele>249.12</ele>
        <time>2026-03-03T14:54:06Z</time>
      </trkpt>
      <trkpt lat="44.51471" lon="1.21651">
        <ele>246.72</ele>
        <time>2026-03-03T14:54:23Z</time>
      </trkpt>
      <trkpt lat="44.51477" lon="1.21632">
        <ele>245.27</ele>
        <time>2026-03-03T14:54:39Z</time>
      </trkpt>
      <trkpt lat="44.51481" lon="1.21614">
        <ele>239.99</ele>
        <time>2026-03-03T14:54:58Z</time>
      </trkpt>
      <trkpt lat="44.51485" lon="1.21588">
        <ele>239.51</ele>
        <time>2026-03-03T14:55:16Z</time>
      </trkpt>
      <trkpt lat="44.51488" lon="1.21572">
        <ele>239.02</ele>
        <time>2026-03-03T14:55:33Z</time>
      </trkpt>
      <trkpt lat="44.51491" lon="1.21548">
        <ele>238.06</ele>
        <time>2026-03-03T14:55:52Z</time>
      </trkpt>
      <trkpt lat="44.51494" lon="1.21525">
        <ele>239.51</ele>
        <time>2026-03-03T14:56:07Z</time>
      </trkpt>
      <trkpt lat="44.5149" lon="1.21517">
        <ele>236.62</ele>
        <time>2026-03-03T14:56:22Z</time>
      </trkpt>
      <trkpt lat="44.51486" lon="1.21519">
        <ele>238.06</ele>
        <time>2026-03-03T14:56:39Z</time>
      </trkpt>
      <trkpt lat="44.51485" lon="1.21515">
        <ele>238.54</ele>
        <time>2026-03-03T14:56:56Z</time>
      </trkpt>
      <trkpt lat="44.51479" lon="1.21512">
        <ele>239.51</ele>
        <time>2026-03-03T14:57:20Z</time>
      </trkpt>
      <trkpt lat="44.5148" lon="1.21516">
        <ele>237.58</ele>
        <time>2026-03-03T14:57:50Z</time>
      </trkpt>
      <trkpt lat="44.51476" lon="1.21519">
        <ele>238.54</ele>
        <time>2026-03-03T14:58:14Z</time>
      </trkpt>
      <trkpt lat="44.51461" lon="1.21523">
        <ele>240.47</ele>
        <time>2026-03-03T14:58:35Z</time>
      </trkpt>
      <trkpt lat="44.51447" lon="1.21531">
        <ele>241.43</ele>
        <time>2026-03-03T14:58:54Z</time>
      </trkpt>
      <trkpt lat="44.51436" lon="1.21533">
        <ele>239.51</ele>
        <time>2026-03-03T14:59:09Z</time>
      </trkpt>
      <trkpt lat="44.51422" lon="1.21536">
        <ele>241.43</ele>
        <time>2026-03-03T14:59:26Z</time>
      </trkpt>
      <trkpt lat="44.51408" lon="1.21536">
        <ele>238.54</ele>
        <time>2026-03-03T14:59:45Z</time>
      </trkpt>
      <trkpt lat="44.51409" lon="1.21523">
        <ele>240.95</ele>
        <time>2026-03-03T15:00:03Z</time>
      </trkpt>
      <trkpt lat="44.51421" lon="1.2151">
        <ele>241.43</ele>
        <time>2026-03-03T15:00:23Z</time>
      </trkpt>
      <trkpt lat="44.5143" lon="1.21496">
        <ele>244.79</ele>
        <time>2026-03-03T15:00:40Z</time>
      </trkpt>
      <trkpt lat="44.51443" lon="1.21485">
        <ele>245.27</ele>
        <time>2026-03-03T15:01:00Z</time>
      </trkpt>
      <trkpt lat="44.51456" lon="1.21474">
        <ele>241.91</ele>
        <time>2026-03-03T15:01:21Z</time>
      </trkpt>
      <trkpt lat="44.51471" lon="1.21463">
        <ele>239.51</ele>
        <time>2026-03-03T15:01:41Z</time>
      </trkpt>
      <trkpt lat="44.51484" lon="1.21453">
        <ele>238.06</ele>
        <time>2026-03-03T15:01:59Z</time>
      </trkpt>
      <trkpt lat="44.51499" lon="1.21438">
        <ele>237.58</ele>
        <time>2026-03-03T15:02:19Z</time>
      </trkpt>
      <trkpt lat="44.51512" lon="1.21422">
        <ele>236.14</ele>
        <time>2026-03-03T15:02:39Z</time>
      </trkpt>
      <trkpt lat="44.51523" lon="1.21406">
        <ele>234.7</ele>
        <time>2026-03-03T15:02:57Z</time>
      </trkpt>
      <trkpt lat="44.51535" lon="1.21385">
        <ele>231.33</ele>
        <time>2026-03-03T15:03:18Z</time>
      </trkpt>
      <trkpt lat="44.51546" lon="1.21368">
        <ele>231.33</ele>
        <time>2026-03-03T15:03:37Z</time>
      </trkpt>
      <trkpt lat="44.51555" lon="1.21349">
        <ele>231.81</ele>
        <time>2026-03-03T15:03:55Z</time>
      </trkpt>
      <trkpt lat="44.5156" lon="1.21332">
        <ele>231.33</ele>
        <time>2026-03-03T15:04:14Z</time>
      </trkpt>
      <trkpt lat="44.51559" lon="1.21315">
        <ele>229.89</ele>
        <time>2026-03-03T15:04:31Z</time>
      </trkpt>
      <trkpt lat="44.51553" lon="1.21292">
        <ele>230.37</ele>
        <time>2026-03-03T15:04:48Z</time>
      </trkpt>
      <trkpt lat="44.51543" lon="1.2128">
        <ele>230.37</ele>
        <time>2026-03-03T15:05:04Z</time>
      </trkpt>
      <trkpt lat="44.5153" lon="1.21273">
        <ele>230.85</ele>
        <time>2026-03-03T15:05:20Z</time>
      </trkpt>
      <trkpt lat="44.51516" lon="1.21272">
        <ele>233.26</ele>
        <time>2026-03-03T15:05:39Z</time>
      </trkpt>
      <trkpt lat="44.51508" lon="1.21273">
        <ele>230.85</ele>
        <time>2026-03-03T15:05:58Z</time>
      </trkpt>
      <trkpt lat="44.51504" lon="1.21278">
        <ele>233.26</ele>
        <time>2026-03-03T15:06:31Z</time>
      </trkpt>
      <trkpt lat="44.51499" lon="1.21284">
        <ele>236.14</ele>
        <time>2026-03-03T15:07:04Z</time>
      </trkpt>
      <trkpt lat="44.51498" lon="1.2128">
        <ele>236.62</ele>
        <time>2026-03-03T15:07:31Z</time>
      </trkpt>
      <trkpt lat="44.51497" lon="1.2128">
        <ele>241.91</ele>
        <time>2026-03-03T15:08:00Z</time>
      </trkpt>
      <trkpt lat="44.51497" lon="1.2128">
        <ele>242.87</ele>
        <time>2026-03-03T15:08:24Z</time>
      </trkpt>
      <trkpt lat="44.51501" lon="1.21278">
        <ele>239.99</ele>
        <time>2026-03-03T15:08:44Z</time>
      </trkpt>
      <trkpt lat="44.51501" lon="1.21273">
        <ele>239.51</ele>
        <time>2026-03-03T15:09:18Z</time>
      </trkpt>
      <trkpt lat="44.51503" lon="1.21279">
        <ele>236.14</ele>
        <time>2026-03-03T15:09:50Z</time>
      </trkpt>
      <trkpt lat="44.51505" lon="1.21285">
        <ele>238.54</ele>
        <time>2026-03-03T15:10:19Z</time>
      </trkpt>
      <trkpt lat="44.51515" lon="1.21276">
        <ele>238.54</ele>
        <time>2026-03-03T15:10:45Z</time>
      </trkpt>
      <trkpt lat="44.51524" lon="1.21276">
        <ele>238.54</ele>
        <time>2026-03-03T15:11:01Z</time>
      </trkpt>
      <trkpt lat="44.51534" lon="1.21277">
        <ele>236.14</ele>
        <time>2026-03-03T15:11:16Z</time>
      </trkpt>
      <trkpt lat="44.5154" lon="1.21278">
        <ele>233.74</ele>
        <time>2026-03-03T15:11:30Z</time>
      </trkpt>
      <trkpt lat="44.51547" lon="1.21286">
        <ele>236.62</ele>
        <time>2026-03-03T15:11:43Z</time>
      </trkpt>
      <trkpt lat="44.51555" lon="1.21295">
        <ele>237.1</ele>
        <time>2026-03-03T15:11:57Z</time>
      </trkpt>
      <trkpt lat="44.51559" lon="1.21309">
        <ele>232.3</ele>
        <time>2026-03-03T15:12:12Z</time>
      </trkpt>
      <trkpt lat="44.51559" lon="1.21327">
        <ele>228.45</ele>
        <time>2026-03-03T15:12:28Z</time>
      </trkpt>
      <trkpt lat="44.51559" lon="1.21335">
        <ele>226.53</ele>
        <time>2026-03-03T15:12:45Z</time>
      </trkpt>
      <trkpt lat="44.51551" lon="1.21348">
        <ele>226.05</ele>
        <time>2026-03-03T15:13:02Z</time>
      </trkpt>
      <trkpt lat="44.51542" lon="1.21365">
        <ele>227.97</ele>
        <time>2026-03-03T15:13:19Z</time>
      </trkpt>
      <trkpt lat="44.51533" lon="1.21379">
        <ele>227.49</ele>
        <time>2026-03-03T15:13:36Z</time>
      </trkpt>
      <trkpt lat="44.51526" lon="1.21391">
        <ele>227.97</ele>
        <time>2026-03-03T15:13:50Z</time>
      </trkpt>
      <trkpt lat="44.51519" lon="1.21403">
        <ele>227.01</ele>
        <time>2026-03-03T15:14:06Z</time>
      </trkpt>
      <trkpt lat="44.51512" lon="1.21413">
        <ele>225.09</ele>
        <time>2026-03-03T15:14:20Z</time>
      </trkpt>
      <trkpt lat="44.51502" lon="1.21429">
        <ele>224.61</ele>
        <time>2026-03-03T15:14:39Z</time>
      </trkpt>
      <trkpt lat="44.51488" lon="1.21442">
        <ele>224.12</ele>
        <time>2026-03-03T15:14:55Z</time>
      </trkpt>
      <trkpt lat="44.51475" lon="1.21453">
        <ele>233.26</ele>
        <time>2026-03-03T15:15:13Z</time>
      </trkpt>
      <trkpt lat="44.51467" lon="1.2146">
        <ele>239.02</ele>
        <time>2026-03-03T15:15:24Z</time>
      </trkpt>
      <trkpt lat="44.51454" lon="1.21469">
        <ele>239.51</ele>
        <time>2026-03-03T15:15:41Z</time>
      </trkpt>
      <trkpt lat="44.51445" lon="1.21477">
        <ele>237.1</ele>
        <time>2026-03-03T15:15:57Z</time>
      </trkpt>
      <trkpt lat="44.51432" lon="1.21487">
        <ele>235.66</ele>
        <time>2026-03-03T15:16:13Z</time>
      </trkpt>
      <trkpt lat="44.5142" lon="1.21502">
        <ele>236.62</ele>
        <time>2026-03-03T15:16:30Z</time>
      </trkpt>
      <trkpt lat="44.51411" lon="1.21518">
        <ele>239.02</ele>
        <time>2026-03-03T15:16:46Z</time>
      </trkpt>
      <trkpt lat="44.51402" lon="1.21534">
        <ele>238.06</ele>
        <time>2026-03-03T15:17:03Z</time>
      </trkpt>
      <trkpt lat="44.51396" lon="1.21548">
        <ele>241.91</ele>
        <time>2026-03-03T15:17:17Z</time>
      </trkpt>
      <trkpt lat="44.51386" lon="1.21554">
        <ele>241.91</ele>
        <time>2026-03-03T15:17:32Z</time>
      </trkpt>
      <trkpt lat="44.51377" lon="1.2156">
        <ele>241.43</ele>
        <time>2026-03-03T15:17:47Z</time>
      </trkpt>
      <trkpt lat="44.51363" lon="1.21569">
        <ele>243.35</ele>
        <time>2026-03-03T15:18:01Z</time>
      </trkpt>
      <trkpt lat="44.51353" lon="1.21571">
        <ele>242.39</ele>
        <time>2026-03-03T15:18:16Z</time>
      </trkpt>
      <trkpt lat="44.5134" lon="1.21573">
        <ele>240.95</ele>
        <time>2026-03-03T15:18:31Z</time>
      </trkpt>
      <trkpt lat="44.51328" lon="1.21574">
        <ele>240.95</ele>
        <time>2026-03-03T15:18:44Z</time>
      </trkpt>
      <trkpt lat="44.51311" lon="1.21575">
        <ele>239.51</ele>
        <time>2026-03-03T15:19:03Z</time>
      </trkpt>
      <trkpt lat="44.51292" lon="1.21571">
        <ele>239.99</ele>
        <time>2026-03-03T15:19:20Z</time>
      </trkpt>
      <trkpt lat="44.51276" lon="1.21573">
        <ele>241.91</ele>
        <time>2026-03-03T15:19:39Z</time>
      </trkpt>
      <trkpt lat="44.51264" lon="1.21587">
        <ele>239.02</ele>
        <time>2026-03-03T15:19:58Z</time>
      </trkpt>
      <trkpt lat="44.51249" lon="1.21601">
        <ele>238.54</ele>
        <time>2026-03-03T15:20:16Z</time>
      </trkpt>
      <trkpt lat="44.51235" lon="1.21613">
        <ele>242.39</ele>
        <time>2026-03-03T15:20:33Z</time>
      </trkpt>
      <trkpt lat="44.51227" lon="1.21623">
        <ele>242.87</ele>
        <time>2026-03-03T15:20:49Z</time>
      </trkpt>
      <trkpt lat="44.51222" lon="1.21629">
        <ele>239.99</ele>
        <time>2026-03-03T15:21:08Z</time>
      </trkpt>
      <trkpt lat="44.51217" lon="1.21631">
        <ele>242.39</ele>
        <time>2026-03-03T15:21:28Z</time>
      </trkpt>
      <trkpt lat="44.51223" lon="1.21635">
        <ele>241.91</ele>
        <time>2026-03-03T15:22:01Z</time>
      </trkpt>
      <trkpt lat="44.51219" lon="1.21636">
        <ele>246.23</ele>
        <time>2026-03-03T15:22:26Z</time>
      </trkpt>
      <trkpt lat="44.51213" lon="1.21635">
        <ele>250.56</ele>
        <time>2026-03-03T15:22:52Z</time>
      </trkpt>
      <trkpt lat="44.51203" lon="1.21642">
        <ele>251.04</ele>
        <time>2026-03-03T15:23:08Z</time>
      </trkpt>
      <trkpt lat="44.51201" lon="1.21646">
        <ele>250.56</ele>
        <time>2026-03-03T15:23:27Z</time>
      </trkpt>
      <trkpt lat="44.51189" lon="1.21654">
        <ele>248.16</ele>
        <time>2026-03-03T15:23:43Z</time>
      </trkpt>
      <trkpt lat="44.51178" lon="1.21663">
        <ele>243.83</ele>
        <time>2026-03-03T15:23:59Z</time>
      </trkpt>
      <trkpt lat="44.51163" lon="1.21677">
        <ele>241.91</ele>
        <time>2026-03-03T15:24:16Z</time>
      </trkpt>
      <trkpt lat="44.51152" lon="1.21685">
        <ele>238.06</ele>
        <time>2026-03-03T15:24:34Z</time>
      </trkpt>
      <trkpt lat="44.51135" lon="1.21693">
        <ele>235.66</ele>
        <time>2026-03-03T15:24:52Z</time>
      </trkpt>
      <trkpt lat="44.51118" lon="1.21698">
        <ele>239.02</ele>
        <time>2026-03-03T15:25:09Z</time>
      </trkpt>
      <trkpt lat="44.51107" lon="1.21697">
        <ele>238.06</ele>
        <time>2026-03-03T15:25:26Z</time>
      </trkpt>
      <trkpt lat="44.51092" lon="1.21698">
        <ele>238.54</ele>
        <time>2026-03-03T15:25:41Z</time>
      </trkpt>
      <trkpt lat="44.51081" lon="1.21697">
        <ele>239.99</ele>
        <time>2026-03-03T15:25:55Z</time>
      </trkpt>
      <trkpt lat="44.51069" lon="1.21696">
        <ele>242.87</ele>
        <time>2026-03-03T15:26:08Z</time>
      </trkpt>
      <trkpt lat="44.51057" lon="1.21698">
        <ele>240.47</ele>
        <time>2026-03-03T15:26:23Z</time>
      </trkpt>
      <trkpt lat="44.51044" lon="1.21697">
        <ele>239.51</ele>
        <time>2026-03-03T15:26:39Z</time>
      </trkpt>
      <trkpt lat="44.51031" lon="1.21698">
        <ele>238.06</ele>
        <time>2026-03-03T15:26:53Z</time>
      </trkpt>
      <trkpt lat="44.51018" lon="1.21695">
        <ele>237.58</ele>
        <time>2026-03-03T15:27:07Z</time>
      </trkpt>
      <trkpt lat="44.51001" lon="1.21694">
        <ele>242.39</ele>
        <time>2026-03-03T15:27:23Z</time>
      </trkpt>
      <trkpt lat="44.50989" lon="1.21694">
        <ele>244.79</ele>
        <time>2026-03-03T15:27:39Z</time>
      </trkpt>
      <trkpt lat="44.50972" lon="1.21696">
        <ele>245.27</ele>
        <time>2026-03-03T15:27:56Z</time>
      </trkpt>
      <trkpt lat="44.50959" lon="1.21698">
        <ele>240.95</ele>
        <time>2026-03-03T15:28:15Z</time>
      </trkpt>
      <trkpt lat="44.50945" lon="1.21704">
        <ele>239.02</ele>
        <time>2026-03-03T15:28:35Z</time>
      </trkpt>
      <trkpt lat="44.50928" lon="1.21711">
        <ele>236.62</ele>
        <time>2026-03-03T15:28:55Z</time>
      </trkpt>
      <trkpt lat="44.50907" lon="1.21718">
        <ele>244.31</ele>
        <time>2026-03-03T15:29:13Z</time>
      </trkpt>
      <trkpt lat="44.50895" lon="1.21722">
        <ele>244.79</ele>
        <time>2026-03-03T15:29:28Z</time>
      </trkpt>
      <trkpt lat="44.50882" lon="1.21733">
        <ele>251.04</ele>
        <time>2026-03-03T15:29:44Z</time>
      </trkpt>
      <trkpt lat="44.50869" lon="1.21738">
        <ele>251.04</ele>
        <time>2026-03-03T15:29:57Z</time>
      </trkpt>
      <trkpt lat="44.50855" lon="1.21743">
        <ele>252</ele>
        <time>2026-03-03T15:30:12Z</time>
      </trkpt>
      <trkpt lat="44.5084" lon="1.2175">
        <ele>253.93</ele>
        <time>2026-03-03T15:30:27Z</time>
      </trkpt>
      <trkpt lat="44.50828" lon="1.21758">
        <ele>256.33</ele>
        <time>2026-03-03T15:30:41Z</time>
      </trkpt>
      <trkpt lat="44.50817" lon="1.21764">
        <ele>256.81</ele>
        <time>2026-03-03T15:30:54Z</time>
      </trkpt>
      <trkpt lat="44.50808" lon="1.2177">
        <ele>254.89</ele>
        <time>2026-03-03T15:31:07Z</time>
      </trkpt>
      <trkpt lat="44.50797" lon="1.21776">
        <ele>257.29</ele>
        <time>2026-03-03T15:31:19Z</time>
      </trkpt>
      <trkpt lat="44.50787" lon="1.21782">
        <ele>257.77</ele>
        <time>2026-03-03T15:31:35Z</time>
      </trkpt>
      <trkpt lat="44.50784" lon="1.2178">
        <ele>256.81</ele>
        <time>2026-03-03T15:31:46Z</time>
      </trkpt>
      <trkpt lat="44.50782" lon="1.21769">
        <ele>254.41</ele>
        <time>2026-03-03T15:32:00Z</time>
      </trkpt>
      <trkpt lat="44.50784" lon="1.21755">
        <ele>252</ele>
        <time>2026-03-03T15:32:16Z</time>
      </trkpt>
      <trkpt lat="44.50789" lon="1.21739">
        <ele>251.52</ele>
        <time>2026-03-03T15:32:32Z</time>
      </trkpt>
      <trkpt lat="44.50787" lon="1.2173">
        <ele>252.48</ele>
        <time>2026-03-03T15:32:50Z</time>
      </trkpt>
      <trkpt lat="44.50785" lon="1.21724">
        <ele>250.56</ele>
        <time>2026-03-03T15:33:09Z</time>
      </trkpt>
      <trkpt lat="44.50789" lon="1.21728">
        <ele>249.6</ele>
        <time>2026-03-03T15:33:29Z</time>
      </trkpt>
      <trkpt lat="44.50792" lon="1.21731">
        <ele>248.64</ele>
        <time>2026-03-03T15:33:34Z</time>
      </trkpt>
      <trkpt lat="44.50778" lon="1.21723">
        <ele>259.21</ele>
        <time>2026-03-03T15:34:37Z</time>
      </trkpt>
      <trkpt lat="44.50786" lon="1.21731">
        <ele>257.77</ele>
        <time>2026-03-03T15:34:59Z</time>
      </trkpt>
      <trkpt lat="44.50783" lon="1.2173">
        <ele>259.69</ele>
        <time>2026-03-03T15:35:14Z</time>
      </trkpt>
      <trkpt lat="44.50783" lon="1.21733">
        <ele>258.73</ele>
        <time>2026-03-03T15:35:31Z</time>
      </trkpt>
      <trkpt lat="44.50791" lon="1.2174">
        <ele>261.62</ele>
        <time>2026-03-03T15:35:45Z</time>
      </trkpt>
      <trkpt lat="44.50784" lon="1.21757">
        <ele>259.21</ele>
        <time>2026-03-03T15:36:05Z</time>
      </trkpt>
      <trkpt lat="44.50785" lon="1.21774">
        <ele>258.25</ele>
        <time>2026-03-03T15:36:21Z</time>
      </trkpt>
      <trkpt lat="44.50783" lon="1.21781">
        <ele>255.85</ele>
        <time>2026-03-03T15:36:36Z</time>
      </trkpt>
      <trkpt lat="44.50776" lon="1.21792">
        <ele>261.62</ele>
        <time>2026-03-03T15:36:58Z</time>
      </trkpt>
      <trkpt lat="44.50763" lon="1.21799">
        <ele>261.14</ele>
        <time>2026-03-03T15:37:15Z</time>
      </trkpt>
      <trkpt lat="44.50751" lon="1.21806">
        <ele>261.62</ele>
        <time>2026-03-03T15:37:32Z</time>
      </trkpt>
      <trkpt lat="44.50743" lon="1.21814">
        <ele>263.06</ele>
        <time>2026-03-03T15:37:50Z</time>
      </trkpt>
      <trkpt lat="44.50732" lon="1.21816">
        <ele>262.1</ele>
        <time>2026-03-03T15:38:05Z</time>
      </trkpt>
      <trkpt lat="44.50718" lon="1.21822">
        <ele>258.73</ele>
        <time>2026-03-03T15:38:21Z</time>
      </trkpt>
      <trkpt lat="44.50705" lon="1.21825">
        <ele>255.85</ele>
        <time>2026-03-03T15:38:36Z</time>
      </trkpt>
      <trkpt lat="44.50693" lon="1.21833">
        <ele>252.96</ele>
        <time>2026-03-03T15:38:52Z</time>
      </trkpt>
      <trkpt lat="44.50679" lon="1.2184">
        <ele>250.08</ele>
        <time>2026-03-03T15:39:09Z</time>
      </trkpt>
      <trkpt lat="44.50672" lon="1.21843">
        <ele>249.6</ele>
        <time>2026-03-03T15:39:25Z</time>
      </trkpt>
      <trkpt lat="44.50673" lon="1.21845">
        <ele>252.96</ele>
        <time>2026-03-03T15:39:40Z</time>
      </trkpt>
    </trkseg>
  </trk>
</gpx>